Time;durP1;ratioP1;P1;durP2;ratioP2;P2;SDS_P1;SDS_P2;PMS_P1;PMS_P2;Temp;Humidity;BMP_temperature;BMP_pressure;BME280_temperature;BME280_humidity;BME280_pressure;Samples;Min_cycle;Max_cycle;Signal;HPM_P1;HPM_P2
2022/06/22 00:01:38;;;;;;;15.73;4.65;;;18.80;59.60;;;;;;9184215;19;20014;-69
2022/06/22 00:04:49;;;;;;;12.38;4.47;;;18.80;59.70;;;;;;9179473;19;20025;-70
2022/06/22 00:07:58;;;;;;;7.63;4.05;;;18.80;59.70;;;;;;9181389;19;20501;-70
2022/06/22 00:11:14;;;;;;;8.80;4.47;;;18.80;59.80;;;;;;9179317;19;20015;-71
2022/06/22 00:14:24;;;;;;;13.25;4.65;;;18.70;60.00;;;;;;9183038;19;20018;-70
2022/06/22 00:17:33;;;;;;;7.43;3.95;;;18.70;59.90;;;;;;9180164;19;20022;-70
2022/06/22 00:20:39;;;;;;;7.60;4.18;;;18.60;59.90;;;;;;9180042;19;20014;-71
2022/06/22 00:23:46;;;;;;;12.85;4.25;;;18.60;60.60;;;;;;9182907;19;20014;-71
2022/06/22 00:26:59;;;;;;;9.68;4.43;;;18.60;60.10;;;;;;9181261;19;20018;-70
2022/06/22 00:30:16;;;;;;;6.82;4.00;;;18.60;60.40;;;;;;9180367;19;20015;-69
2022/06/22 00:33:25;;;;;;;10.00;4.30;;;18.50;60.50;;;;;;9180794;19;20498;-71
2022/06/22 00:36:35;;;;;;;13.20;4.55;;;18.50;60.40;;;;;;9182370;19;20332;-70
2022/06/22 00:39:43;;;;;;;9.05;4.28;;;18.50;60.40;;;;;;9181441;19;20018;-70
2022/06/22 00:42:53;;;;;;;13.48;4.32;;;18.40;60.50;;;;;;9178826;19;20070;-70
2022/06/22 00:46:00;;;;;;;12.48;4.28;;;18.40;60.70;;;;;;9178234;19;20364;-70
2022/06/22 00:49:12;;;;;;;11.68;4.18;;;18.40;60.70;;;;;;9179774;19;20044;-69
2022/06/22 00:52:26;;;;;;;12.23;5.20;;;18.30;60.90;;;;;;9179699;19;20545;-68
2022/06/22 00:55:37;;;;;;;9.23;4.38;;;18.30;61.00;;;;;;9181528;19;20018;-68
2022/06/22 00:58:55;;;;;;;13.23;4.95;;;18.30;61.00;;;;;;9179472;19;20026;-70
2022/06/22 01:02:05;;;;;;;9.18;3.90;;;18.20;61.10;;;;;;9180913;19;20009;-70
2022/06/22 01:05:20;;;;;;;14.95;4.45;;;18.20;61.10;;;;;;9177147;19;20026;-68
2022/06/22 01:08:32;;;;;;;8.73;3.95;;;18.10;61.30;;;;;;9179140;19;20015;-68
2022/06/22 01:15:07;;;;;;;9.30;4.55;;;18.10;61.30;;;;;;9180412;19;20019;-68
2022/06/22 01:18:16;;;;;;;10.15;4.72;;;18.00;61.50;;;;;;9178128;19;20017;-68
2022/06/22 01:21:26;;;;;;;10.40;4.93;;;18.00;61.40;;;;;;9179226;19;20019;-68
2022/06/22 01:24:41;;;;;;;8.63;4.78;;;17.90;61.50;;;;;;9178396;19;20014;-72
2022/06/22 01:27:51;;;;;;;10.75;4.68;;;17.90;61.70;;;;;;9179644;19;20019;-68
2022/06/22 01:30:58;;;;;;;10.95;4.78;;;17.90;61.70;;;;;;9175651;19;20022;-68
2022/06/22 01:34:04;;;;;;;12.85;4.85;;;17.80;61.70;;;;;;9178297;19;20025;-69
2022/06/22 01:37:16;;;;;;;7.53;4.20;;;17.80;61.80;;;;;;9177721;19;20029;-70
2022/06/22 01:40:24;;;;;;;10.27;5.00;;;17.80;62.00;;;;;;9179106;19;20482;-70
2022/06/22 01:43:37;;;;;;;9.93;4.82;;;17.70;61.90;;;;;;9178892;19;20018;-69
2022/06/22 01:46:51;;;;;;;12.38;4.97;;;17.70;62.10;;;;;;9174594;19;20018;-70
2022/06/22 01:50:02;;;;;;;14.13;6.80;;;17.60;62.10;;;;;;9179772;19;20026;-70
2022/06/22 01:53:15;;;;;;;11.10;5.07;;;17.60;62.10;;;;;;9176956;19;20022;-70
2022/06/22 01:56:29;;;;;;;13.50;4.97;;;17.50;62.30;;;;;;9178286;19;20103;-70
2022/06/22 01:59:40;;;;;;;;;;;17.50;62.50;;;;;;9178401;19;20498;-70
2022/06/22 02:02:49;;;;;;;9.40;4.60;;;17.40;62.00;;;;;;9177572;19;19915;-70
2022/06/22 02:06:00;;;;;;;7.80;4.70;;;17.30;62.00;;;;;;9176150;19;20475;-69
2022/06/22 02:09:08;;;;;;;11.93;4.90;;;17.30;62.30;;;;;;9179047;19;20011;-71
2022/06/22 02:12:27;;;;;;;10.80;5.07;;;17.30;62.50;;;;;;9172727;19;20018;-70
2022/06/22 02:15:52;;;;;;;10.77;5.03;;;17.20;62.40;;;;;;9179867;19;20662;-68
2022/06/22 02:19:12;;;;;;;14.30;5.50;;;17.20;62.80;;;;;;9179677;19;20011;-70
2022/06/22 02:22:17;;;;;;;11.93;5.85;;;17.10;62.90;;;;;;9179256;19;20355;-72
2022/06/22 02:25:23;;;;;;;12.60;6.30;;;17.10;62.70;;;;;;9177381;19;20018;-71
2022/06/22 02:28:29;;;;;;;15.75;6.85;;;17.00;62.80;;;;;;9179037;19;20007;-72
2022/06/22 02:31:37;;;;;;;10.88;6.85;;;17.00;62.90;;;;;;9177373;19;20010;-67
2022/06/22 02:34:46;;;;;;;17.88;6.28;;;17.00;63.10;;;;;;9176252;19;20026;-71
2022/06/22 02:38:07;;;;;;;11.27;6.53;;;16.90;63.10;;;;;;9176181;19;20104;-70
2022/06/22 02:44:37;;;;;;;12.48;6.00;;;16.80;63.10;;;;;;9184360;19;20589;-69
2022/06/22 02:47:50;;;;;;;10.43;5.78;;;16.80;63.20;;;;;;9180681;19;21095;-68
2022/06/22 02:51:02;;;;;;;15.35;7.45;;;16.70;63.40;;;;;;9184515;19;20014;-69
2022/06/22 02:54:14;;;;;;;13.65;6.65;;;16.70;63.40;;;;;;9183954;19;20055;-69
2022/06/22 02:57:25;;;;;;;11.45;6.53;;;16.70;63.40;;;;;;9186861;19;20019;-69
2022/06/22 03:00:34;;;;;;;13.77;5.95;;;16.60;63.40;;;;;;9183355;19;20341;-69
2022/06/22 03:03:44;;;;;;;12.77;5.88;;;16.60;63.40;;;;;;9183276;19;20011;-69
2022/06/22 03:06:52;;;;;;;11.07;6.53;;;16.50;63.50;;;;;;9182892;19;20020;-68
2022/06/22 03:09:57;;;;;;;11.15;5.75;;;16.50;63.50;;;;;;9183535;19;20022;-67
2022/06/22 03:13:03;;;;;;;9.27;6.00;;;16.40;63.50;;;;;;9181842;19;20033;-68
2022/06/22 03:16:09;;;;;;;12.18;6.15;;;16.40;63.60;;;;;;9183924;19;20025;-67
2022/06/22 03:19:28;;;;;;;10.55;5.78;;;16.30;63.50;;;;;;9184306;19;20018;-67
2022/06/22 03:22:37;;;;;;;10.25;5.90;;;16.30;63.80;;;;;;9184850;19;20355;-68
2022/06/22 03:25:46;;;;;;;14.18;5.93;;;16.30;63.70;;;;;;9182914;19;20398;-68
2022/06/22 03:28:56;;;;;;;13.20;5.68;;;16.30;63.70;;;;;;9184245;19;20014;-68
2022/06/22 03:32:06;;;;;;;15.57;6.80;;;16.20;63.70;;;;;;9182391;19;20018;-67
2022/06/22 03:35:18;;;;;;;11.55;6.53;;;16.20;63.70;;;;;;9184567;19;20728;-68
2022/06/22 03:38:28;;;;;;;10.63;5.78;;;16.10;63.80;;;;;;9184444;19;20021;-68
2022/06/22 03:41:36;;;;;;;13.48;5.43;;;16.10;63.80;;;;;;9182276;19;20037;-68
2022/06/22 03:44:45;;;;;;;9.35;4.93;;;16.10;63.90;;;;;;9184685;19;20015;-68
2022/06/22 03:47:56;;;;;;;13.18;5.25;;;16.10;63.90;;;;;;9183309;19;20702;-68
2022/06/22 03:51:09;;;;;;;8.07;4.68;;;16.00;63.90;;;;;;9185234;19;20384;-68
2022/06/22 03:54:17;;;;;;;8.35;4.93;;;16.00;64.10;;;;;;9181832;19;20341;-67
2022/06/22 03:57:27;;;;;;;10.82;4.95;;;15.90;63.90;;;;;;9183322;19;20010;-69
2022/06/22 04:00:34;;;;;;;13.10;4.40;;;15.90;64.00;;;;;;9182498;19;20019;-67
2022/06/22 04:03:39;;;;;;;8.82;4.70;;;15.90;63.90;;;;;;9181277;19;20030;-67
2022/06/22 04:06:50;;;;;;;10.18;4.97;;;15.90;64.00;;;;;;9184955;19;20019;-67
2022/06/22 04:09:58;;;;;;;9.25;4.40;;;15.80;64.70;;;;;;9182600;19;20033;-67
2022/06/22 04:13:05;;;;;;;8.95;4.63;;;15.80;63.90;;;;;;9179080;19;20018;-68
2022/06/22 04:16:13;;;;;;;7.80;4.50;;;15.80;64.00;;;;;;9184101;19;20018;-68
2022/06/22 04:19:22;;;;;;;8.63;4.63;;;15.80;64.00;;;;;;9182479;19;20197;-69
2022/06/22 04:22:32;;;;;;;11.75;4.55;;;15.80;64.10;;;;;;9182951;19;20034;-69
2022/06/22 04:25:40;;;;;;;9.43;4.70;;;15.80;64.90;;;;;;9183670;19;20021;-68
2022/06/22 04:28:49;;;;;;;10.02;5.50;;;15.80;64.30;;;;;;9182202;19;20026;-70
2022/06/22 04:31:59;;;;;;;12.55;4.18;;;15.80;64.30;;;;;;9182068;19;20360;-67
2022/06/22 04:35:10;;;;;;;7.90;4.30;;;15.80;64.30;;;;;;9182975;19;20029;-68
2022/06/22 04:38:26;;;;;;;6.25;3.83;;;15.80;64.30;;;;;;9183151;19;20486;-68
2022/06/22 04:41:34;;;;;;;6.38;4.63;;;15.70;64.40;;;;;;9183037;19;20360;-68
2022/06/22 04:44:45;;;;;;;12.50;5.25;;;15.80;64.40;;;;;;9181262;19;20506;-68
2022/06/22 04:47:50;;;;;;;9.20;4.75;;;15.70;64.40;;;;;;9179924;19;20010;-67
2022/06/22 04:50:58;;;;;;;9.55;4.55;;;15.70;64.40;;;;;;9182272;19;20022;-70
2022/06/22 04:54:15;;;;;;;8.50;5.55;;;15.70;64.40;;;;;;9181707;19;20014;-67
2022/06/22 04:57:25;;;;;;;9.68;6.47;;;15.70;64.60;;;;;;9181699;19;20014;-67
2022/06/22 05:00:34;;;;;;;13.88;7.15;;;15.80;64.60;;;;;;9182465;19;20019;-68
2022/06/22 05:03:39;;;;;;;9.18;5.85;;;15.80;64.60;;;;;;9179356;19;20650;-67
2022/06/22 05:06:52;;;;;;;12.02;6.28;;;15.80;64.60;;;;;;9180118;19;20089;-67
2022/06/22 05:10:04;;;;;;;14.13;6.18;;;15.80;64.70;;;;;;9180612;19;20019;-67
2022/06/22 05:13:16;;;;;;;13.70;6.38;;;15.80;64.80;;;;;;9177569;19;20018;-67
2022/06/22 05:16:24;;;;;;;11.65;5.95;;;15.80;64.80;;;;;;9182108;19;20014;-68
2022/06/22 05:19:35;;;;;;;17.33;6.72;;;15.80;64.70;;;;;;9179582;19;20014;-66
2022/06/22 05:22:40;;;;;;;16.85;7.03;;;15.90;64.90;;;;;;9179362;19;20029;-67
2022/06/22 05:25:54;;;;;;;13.00;6.75;;;15.90;64.80;;;;;;9180524;19;20010;-67
2022/06/22 05:29:06;;;;;;;13.77;7.35;;;16.00;65.00;;;;;;9177940;19;20467;-67
2022/06/22 05:32:15;;;;;;;12.38;6.78;;;16.00;65.00;;;;;;9181760;19;20367;-67
2022/06/22 05:35:25;;;;;;;11.05;6.28;;;16.10;65.00;;;;;;9182028;19;20011;-67
2022/06/22 05:38:32;;;;;;;17.17;6.75;;;16.20;65.10;;;;;;9180710;19;20022;-67
2022/06/22 05:41:43;;;;;;;11.77;5.45;;;16.30;65.10;;;;;;9177888;19;20023;-67
2022/06/22 05:44:48;;;;;;;13.05;5.47;;;16.40;65.30;;;;;;9178745;19;20022;-67
2022/06/22 05:47:56;;;;;;;10.90;5.13;;;16.60;65.20;;;;;;9177757;19;20021;-68
2022/06/22 05:51:04;;;;;;;11.93;5.00;;;16.70;65.20;;;;;;9181077;19;20010;-68
2022/06/22 05:54:15;;;;;;;13.32;5.32;;;16.90;65.10;;;;;;9178965;19;20029;-68
2022/06/22 05:57:35;;;;;;;12.40;4.97;;;17.00;65.00;;;;;;9179314;19;20018;-67
2022/06/22 06:00:47;;;;;;;7.47;4.55;;;17.20;64.90;;;;;;9177591;19;20094;-67
2022/06/22 06:04:02;;;;;;;14.98;4.53;;;17.40;64.70;;;;;;9179331;19;20014;-67
2022/06/22 06:07:14;;;;;;;13.30;4.53;;;17.70;64.70;;;;;;9179734;19;20803;-69
2022/06/22 06:10:23;;;;;;;12.45;4.07;;;17.90;64.60;;;;;;9180230;19;20451;-67
2022/06/22 06:13:35;;;;;;;7.15;3.47;;;18.10;64.40;;;;;;9169773;19;20483;-67
2022/06/22 06:16:47;;;;;;;8.45;3.53;;;18.30;64.20;;;;;;9174726;19;20022;-67
2022/06/22 06:19:55;;;;;;;8.35;3.53;;;18.50;64.00;;;;;;9178993;19;20556;-68
2022/06/22 06:23:14;;;;;;;7.30;3.78;;;18.70;63.80;;;;;;9176755;19;20339;-71
2022/06/22 06:30:00;;;;;;;8.27;4.13;;;19.10;63.50;;;;;;9179000;19;20018;-69
2022/06/22 06:33:11;;;;;;;10.95;3.83;;;19.30;63.30;;;;;;9176281;19;20782;-69
2022/06/22 06:36:29;;;;;;;12.38;3.83;;;19.50;63.10;;;;;;9180960;19;20014;-69
2022/06/22 06:39:40;;;;;;;6.20;3.05;;;19.70;62.90;;;;;;9183314;19;20107;-68
2022/06/22 06:42:50;;;;;;;11.13;3.20;;;19.90;62.70;;;;;;9185953;19;20014;-70
2022/06/22 06:45:59;;;;;;;8.68;3.17;;;20.20;62.50;;;;;;9189117;19;20087;-69
2022/06/22 06:49:15;;;;;;;14.60;3.03;;;20.40;62.30;;;;;;9185276;19;20486;-70
2022/06/22 06:52:29;;;;;;;7.72;3.22;;;20.50;62.00;;;;;;9186816;19;20569;-69
2022/06/22 06:55:45;;;;;;;10.98;3.42;;;20.80;62.00;;;;;;9189182;19;20014;-69
2022/06/22 06:58:54;;;;;;;6.32;2.95;;;21.00;61.70;;;;;;9188485;19;20343;-69
2022/06/22 07:02:06;;;;;;;5.05;2.90;;;21.20;61.40;;;;;;9187108;19;20018;-69
2022/06/22 07:05:18;;;;;;;10.48;2.63;;;21.30;61.10;;;;;;9182106;19;20483;-69
2022/06/22 07:08:28;;;;;;;8.85;3.10;;;21.50;60.90;;;;;;9183312;19;20015;-69
2022/06/22 07:11:51;;;;;;;8.77;3.30;;;21.70;60.90;;;;;;9182128;19;20038;-70
2022/06/22 07:14:58;;;;;;;9.50;2.92;;;21.90;60.70;;;;;;9184477;19;20022;-68
2022/06/22 07:18:22;;;;;;;8.75;2.60;;;22.10;60.40;;;;;;9184219;19;20025;-68
2022/06/22 07:21:32;;;;;;;7.82;3.00;;;22.30;60.10;;;;;;9187231;19;20018;-68
2022/06/22 07:24:42;;;;;;;5.00;2.88;;;22.50;59.90;;;;;;9184364;19;20010;-68
2022/06/22 07:27:55;;;;;;;8.32;3.50;;;22.70;59.70;;;;;;9183780;19;20014;-68
2022/06/22 07:31:07;;;;;;;9.68;2.92;;;22.90;59.50;;;;;;9184485;19;20014;-68
2022/06/22 07:34:20;;;;;;;10.20;3.47;;;23.00;59.20;;;;;;9186238;19;20060;-68
2022/06/22 07:37:33;;;;;;;11.55;3.22;;;23.20;59.00;;;;;;9186214;19;20423;-69
2022/06/22 07:41:18;;;;;;;6.60;2.83;;;23.30;58.80;;;;;;9184111;19;20022;-68
2022/06/22 07:44:09;;;;;;;6.45;3.13;;;23.50;58.60;;;;;;9183468;19;20114;-69
2022/06/22 07:47:19;;;;;;;7.00;2.63;;;23.70;58.30;;;;;;9183786;19;20022;-69
2022/06/22 07:50:32;;;;;;;9.63;2.65;;;23.80;58.10;;;;;;9184603;19;20014;-69
2022/06/22 07:53:41;;;;;;;7.50;2.80;;;24.00;57.80;;;;;;9184121;19;20490;-68
2022/06/22 07:56:55;;;;;;;7.38;2.88;;;24.10;57.60;;;;;;9181573;19;20049;-72
2022/06/22 08:00:04;;;;;;;9.93;2.55;;;24.20;57.40;;;;;;9182591;19;20017;-71
2022/06/22 08:03:25;;;;;;;5.38;3.17;;;24.30;57.30;;;;;;9183206;19;20359;-70
2022/06/22 08:06:38;;;;;;;5.55;2.70;;;24.50;57.10;;;;;;9184611;19;20089;-71
2022/06/22 08:09:49;;;;;;;10.60;2.93;;;24.70;56.80;;;;;;9182086;19;20030;-71
2022/06/22 08:13:05;;;;;;;8.05;2.60;;;24.80;56.70;;;;;;9179913;19;20078;-71
2022/06/22 08:16:15;;;;;;;12.43;2.53;;;24.90;56.40;;;;;;9183386;19;20483;-67
2022/06/22 08:19:21;;;;;;;5.47;2.47;;;25.00;56.20;;;;;;9184122;19;20039;-68
2022/06/22 08:22:28;;;;;;;5.78;2.25;;;25.20;56.10;;;;;;9183055;19;20477;-69
2022/06/22 08:25:36;;;;;;;7.68;2.53;;;25.30;55.80;;;;;;9183131;19;20610;-68
2022/06/22 08:28:42;;;;;;;3.13;1.52;;;25.50;55.70;;;;;;9181222;19;20014;-68
2022/06/22 08:31:52;;;;;;;4.95;1.98;;;25.60;55.30;;;;;;9182898;19;20774;-69
2022/06/22 08:35:21;;;;;;;7.00;2.25;;;25.80;55.20;;;;;;9180081;19;20014;-69
2022/06/22 08:38:32;;;;;;;3.85;2.17;;;25.90;54.80;;;;;;9180257;19;20494;-70
2022/06/22 08:41:50;;;;;;;9.20;2.50;;;26.00;54.40;;;;;;9181264;19;20014;-68
2022/06/22 08:45:14;;;;;;;7.07;2.05;;;26.20;54.00;;;;;;9182899;19;20112;-69
2022/06/22 08:48:51;;;;;;;5.50;1.92;;;26.30;53.80;;;;;;9179682;19;20018;-70
2022/06/22 08:52:22;;;;;;;3.85;1.55;;;26.40;53.40;;;;;;9182663;19;20009;-69
2022/06/22 08:55:49;;;;;;;6.72;1.95;;;26.50;53.20;;;;;;9180425;19;20021;-70
2022/06/22 08:59:24;;;;;;;9.85;1.80;;;26.60;53.10;;;;;;9182577;19;20014;-71
2022/06/22 09:03:17;;;;;;;6.68;1.60;;;26.80;52.90;;;;;;9181495;19;20460;-75
2022/06/22 09:06:51;;;;;;;5.95;2.40;;;26.90;52.50;;;;;;9179539;19;20014;-73
2022/06/22 09:10:16;;;;;;;4.80;1.70;;;27.10;52.30;;;;;;9179245;19;20014;-72
2022/06/22 09:13:48;;;;;;;6.38;2.08;;;27.20;52.00;;;;;;9177129;19;20018;-74
2022/06/22 09:17:14;;;;;;;5.28;1.40;;;27.30;52.40;;;;;;9180844;19;20021;-73
2022/06/22 09:20:41;;;;;;;5.85;1.92;;;27.40;51.50;;;;;;9182055;19;20047;-76
2022/06/22 09:24:01;;;;;;;2.90;1.35;;;27.50;51.10;;;;;;9181424;19;20022;-74
2022/06/22 09:27:17;;;;;;;6.18;2.00;;;27.60;50.80;;;;;;9179848;19;20609;-74
2022/06/22 09:30:43;;;;;;;9.02;2.15;;;27.70;51.30;;;;;;9178177;19;20010;-74
2022/06/22 09:34:06;;;;;;;12.10;2.00;;;27.80;50.50;;;;;;9182484;19;20018;-73
2022/06/22 09:37:29;;;;;;;2.88;1.70;;;27.90;50.30;;;;;;9181702;19;20024;-74
2022/06/22 09:40:54;;;;;;;5.40;2.30;;;28.00;50.20;;;;;;9182083;19;20022;-76
2022/06/22 09:44:33;;;;;;;2.33;1.45;;;28.00;50.10;;;;;;9181872;19;20022;-75
2022/06/22 09:48:08;;;;;;;3.17;1.65;;;28.10;49.90;;;;;;9177906;19;20030;-75
2022/06/22 09:51:39;;;;;;;6.03;1.85;;;28.20;49.60;;;;;;9183459;19;20475;-75
2022/06/22 09:58:36;;;;;;;3.92;1.92;;;28.40;49.40;;;;;;9190774;19;20022;-74
2022/06/22 10:01:49;;;;;;;7.15;1.92;;;28.40;49.20;;;;;;9187977;19;20015;-74
2022/06/22 10:05:35;;;;;;;4.50;1.92;;;28.50;49.20;;;;;;9185301;19;20014;-74
2022/06/22 10:09:06;;;;;;;4.15;1.40;;;28.60;48.80;;;;;;9187602;19;20025;-73
2022/06/22 10:12:27;;;;;;;2.58;1.40;;;28.70;48.60;;;;;;9183238;19;20022;-73
2022/06/22 10:15:46;;;;;;;7.20;1.40;;;28.80;48.20;;;;;;9190050;19;20014;-71
2022/06/22 10:19:08;;;;;;;3.53;1.52;;;28.90;48.20;;;;;;9188276;19;20007;-70
2022/06/22 10:22:43;;;;;;;7.32;1.58;;;29.00;48.10;;;;;;9190218;19;20348;-70
2022/06/22 10:26:01;;;;;;;2.78;1.40;;;29.10;47.70;;;;;;9186759;19;20022;-72
2022/06/22 10:29:44;;;;;;;4.88;1.60;;;29.10;47.50;;;;;;9185093;19;20082;-74
2022/06/22 10:33:19;;;;;;;4.50;1.50;;;29.20;47.20;;;;;;9186339;19;20098;-70
2022/06/22 10:37:06;;;;;;;3.58;1.23;;;29.30;47.00;;;;;;9187174;19;20470;-72
2022/06/22 10:48:36;;;;;;;6.00;1.42;;;29.50;46.30;;;;;;9187587;19;20018;-70
2022/06/22 10:52:11;;;;;;;6.80;1.92;;;29.50;46.20;;;;;;9184188;19;20050;-71
2022/06/22 10:55:34;;;;;;;4.53;1.52;;;29.50;45.90;;;;;;9186916;19;20017;-70
2022/06/22 10:58:58;;;;;;;2.97;1.53;;;29.50;45.70;;;;;;9187535;19;20022;-70
2022/06/22 11:02:28;;;;;;;3.67;1.43;;;29.60;45.60;;;;;;9182292;19;20532;-69
2022/06/22 11:05:48;;;;;;;5.13;1.83;;;29.60;45.50;;;;;;9181786;19;20025;-72
2022/06/22 11:09:26;;;;;;;2.17;1.10;;;29.50;45.20;;;;;;9184920;19;20082;-70
2022/06/22 11:13:00;;;;;;;8.68;1.80;;;29.60;45.10;;;;;;9179873;19;20526;-69
2022/06/22 11:16:18;;;;;;;3.72;1.45;;;29.60;45.00;;;;;;9185113;19;20030;-70
2022/06/22 11:20:03;;;;;;;2.72;1.15;;;29.50;45.10;;;;;;9185164;19;20018;-71
2022/06/22 11:23:13;;;;;;;2.28;1.60;;;29.50;44.90;;;;;;9184369;19;20033;-70
2022/06/22 11:33:58;;;;;;;3.50;1.53;;;29.60;44.40;;;;;;9185357;19;20022;-70
2022/06/22 11:37:15;;;;;;;5.78;1.30;;;29.60;44.30;;;;;;9184476;19;21067;-70
2022/06/22 11:40:55;;;;;;;1.95;1.02;;;29.70;44.20;;;;;;9185560;19;20021;-69
2022/06/22 11:44:40;;;;;;;7.35;1.40;;;29.70;43.90;;;;;;9176955;19;20014;-69
2022/06/22 11:48:04;;;;;;;2.72;1.08;;;29.70;43.80;;;;;;9173601;19;20026;-69
2022/06/22 11:51:20;;;;;;;9.00;1.48;;;29.70;43.70;;;;;;9173537;19;20030;-70
2022/06/22 11:54:49;;;;;;;6.68;1.38;;;29.70;43.60;;;;;;9175319;19;20033;-69
2022/06/22 11:58:31;;;;;;;3.78;1.20;;;29.80;43.30;;;;;;9172787;19;20026;-71
2022/06/22 12:01:54;;;;;;;2.75;1.05;;;29.70;43.10;;;;;;9174931;19;20015;-70
2022/06/22 12:05:17;;;;;;;2.40;1.00;;;29.70;42.80;;;;;;9174163;19;20101;-70
2022/06/22 12:08:50;;;;;;;2.85;0.82;;;29.70;42.70;;;;;;9173813;19;20402;-70
2022/06/22 12:12:19;;;;;;;4.00;1.08;;;29.60;42.60;;;;;;9167899;19;20038;-70
2022/06/22 12:15:41;;;;;;;0.70;0.70;;;29.60;42.50;;;;;;9173819;19;20021;-71
2022/06/22 12:19:01;;;;;;;1.40;0.75;;;29.60;42.60;;;;;;9175253;19;21479;-70
2022/06/22 12:22:19;;;;;;;5.05;1.38;;;29.60;42.40;;;;;;9173340;19;20021;-70
2022/06/22 12:25:49;;;;;;;2.92;0.90;;;29.60;42.10;;;;;;9174569;19;20601;-70
2022/06/22 12:29:25;;;;;;;2.50;0.90;;;29.70;41.90;;;;;;9179599;19;20022;-73
2022/06/22 12:32:37;;;;;;;3.28;0.98;;;29.70;41.80;;;;;;9177407;19;20021;-73
2022/06/22 12:35:51;;;;;;;2.45;1.20;;;29.60;41.90;;;;;;9180990;19;20471;-71
2022/06/22 12:39:06;;;;;;;2.63;0.73;;;29.60;41.80;;;;;;9178572;19;20019;-72
2022/06/22 12:42:42;;;;;;;1.92;0.98;;;29.70;41.80;;;;;;9180985;19;20026;-71
2022/06/22 12:45:58;;;;;;;2.83;0.95;;;29.70;41.60;;;;;;9181002;19;20014;-71
2022/06/22 12:49:23;;;;;;;1.50;0.70;;;29.90;41.60;;;;;;9181270;19;20007;-72
2022/06/22 12:52:35;;;;;;;4.38;0.98;;;29.90;41.40;;;;;;9176220;19;20506;-71
2022/06/22 12:55:50;;;;;;;4.30;0.88;;;29.90;41.40;;;;;;9170482;19;20344;-69
2022/06/22 12:59:00;;;;;;;5.50;0.80;;;29.90;41.20;;;;;;9171313;19;20014;-68
2022/06/22 13:02:06;;;;;;;2.58;0.77;;;29.90;42.00;;;;;;9175845;19;20480;-68
2022/06/22 13:05:19;;;;;;;3.33;1.20;;;30.00;41.20;;;;;;9168686;19;20730;-68
2022/06/22 13:08:26;;;;;;;2.13;0.73;;;30.00;40.80;;;;;;9174291;19;20072;-68
2022/06/22 13:11:34;;;;;;;5.18;0.90;;;30.00;40.50;;;;;;9166347;19;20022;-68
2022/06/22 13:14:46;;;;;;;3.03;0.90;;;30.00;40.20;;;;;;9171590;19;20807;-70
2022/06/22 13:17:58;;;;;;;3.05;0.80;;;30.00;39.90;;;;;;9169814;19;20635;-70
2022/06/22 13:21:12;;;;;;;1.33;0.70;;;30.00;39.70;;;;;;9169814;19;20023;-67
2022/06/22 13:24:25;;;;;;;1.83;0.60;;;30.00;39.50;;;;;;9172286;19;20014;-70
2022/06/22 13:27:45;;;;;;;3.88;0.98;;;29.90;39.30;;;;;;9169484;19;20010;-70
2022/06/22 13:30:56;;;;;;;4.50;0.75;;;29.90;39.40;;;;;;9170501;19;20021;-73
2022/06/22 13:34:07;;;;;;;1.58;0.80;;;30.00;39.40;;;;;;9173658;19;20089;-73
2022/06/22 13:37:18;;;;;;;4.10;0.60;;;30.00;39.40;;;;;;9172564;19;20009;-76
2022/06/22 13:40:30;;;;;;;1.73;0.85;;;30.00;39.40;;;;;;9172384;19;20019;-73
2022/06/22 13:43:58;;;;;;;5.88;0.98;;;30.00;39.30;;;;;;9171042;19;20094;-75
2022/06/22 13:47:27;;;;;;;3.08;0.65;;;30.00;39.10;;;;;;9170409;19;20011;-71
2022/06/22 13:51:08;;;;;;;1.30;0.80;;;30.00;39.00;;;;;;9167009;19;20472;-71
2022/06/22 13:54:39;;;;;;;5.10;0.73;;;30.00;38.90;;;;;;9172351;19;20015;-70
2022/06/22 13:57:49;;;;;;;2.05;1.00;;;30.00;39.10;;;;;;9172846;19;20049;-70
2022/06/22 14:01:08;;;;;;;1.77;0.70;;;30.00;39.10;;;;;;9170752;19;20018;-70
2022/06/22 14:04:18;;;;;;;4.25;0.80;;;30.00;38.80;;;;;;9168252;19;20011;-69
2022/06/22 14:07:30;;;;;;;3.53;1.00;;;30.00;38.90;;;;;;9172176;19;20026;-69
2022/06/22 14:10:39;;;;;;;2.47;0.70;;;30.00;38.80;;;;;;9170501;19;20014;-71
2022/06/22 14:14:01;;;;;;;3.10;0.90;;;30.00;38.70;;;;;;9169278;19;20052;-68
2022/06/22 14:17:15;;;;;;;1.05;0.50;;;30.00;38.60;;;;;;9171252;19;20384;-69
2022/06/22 14:20:28;;;;;;;1.48;0.93;;;30.00;38.60;;;;;;9168966;19;20022;-68
2022/06/22 14:23:33;;;;;;;4.85;0.95;;;30.00;38.60;;;;;;9170238;19;20015;-69
2022/06/22 14:26:58;;;;;;;1.23;0.73;;;29.90;38.80;;;;;;9169446;19;20022;-69
2022/06/22 14:30:21;;;;;;;3.67;0.90;;;30.00;39.00;;;;;;9169451;19;20015;-69
2022/06/22 14:33:45;;;;;;;4.20;1.13;;;29.90;38.20;;;;;;9167323;19;20023;-68
2022/06/22 14:36:54;;;;;;;4.05;0.63;;;29.90;38.30;;;;;;9172541;19;20018;-71
2022/06/22 14:40:07;;;;;;;4.63;0.90;;;29.90;38.50;;;;;;9177943;19;20014;-71
2022/06/22 14:43:37;;;;;;;5.50;1.05;;;29.80;38.30;;;;;;9175347;19;20026;-69
2022/06/22 14:46:47;;;;;;;2.50;0.93;;;29.80;38.30;;;;;;9173863;19;20014;-69
2022/06/22 14:50:23;;;;;;;3.78;0.90;;;29.80;38.20;;;;;;9177276;19;20050;-70
2022/06/22 14:53:47;;;;;;;1.30;0.55;;;29.80;38.00;;;;;;9180764;19;20021;-70
2022/06/22 14:56:59;;;;;;;2.67;0.70;;;29.70;37.90;;;;;;9175528;19;20014;-70
2022/06/22 15:00:30;;;;;;;4.53;1.00;;;29.70;38.20;;;;;;9176951;19;20352;-71
2022/06/22 15:03:43;;;;;;;3.47;0.85;;;29.70;38.00;;;;;;9173369;19;20344;-70
2022/06/22 15:07:06;;;;;;;3.03;0.95;;;29.70;38.10;;;;;;9177445;19;20018;-70
2022/06/22 15:10:17;;;;;;;1.15;0.75;;;29.60;37.90;;;;;;9179586;19;20026;-70
2022/06/22 15:13:28;;;;;;;3.35;0.80;;;29.70;38.10;;;;;;9171597;19;20018;-71
2022/06/22 15:16:44;;;;;;;6.20;1.33;;;29.70;37.90;;;;;;9182869;19;20025;-70
2022/06/22 15:19:56;;;;;;;1.35;0.50;;;29.70;37.80;;;;;;9181047;19;20499;-70
2022/06/22 15:23:12;;;;;;;1.40;0.65;;;29.70;37.80;;;;;;9180777;19;20100;-71
2022/06/22 15:26:35;;;;;;;2.55;0.82;;;29.60;37.50;;;;;;9184310;19;20018;-70
2022/06/22 15:29:49;;;;;;;9.40;1.27;;;29.60;37.40;;;;;;9186221;19;20018;-72
2022/06/22 15:33:02;;;;;;;2.38;0.57;;;29.60;37.50;;;;;;9180611;19;20014;-69
2022/06/22 15:36:11;;;;;;;4.70;0.88;;;29.60;37.40;;;;;;9179499;19;20018;-71
2022/06/22 15:39:27;;;;;;;2.00;0.50;;;29.70;37.50;;;;;;9177809;19;20022;-72
2022/06/22 15:42:43;;;;;;;1.02;0.80;;;29.70;37.40;;;;;;9179766;19;20610;-71
2022/06/22 15:45:55;;;;;;;4.15;0.73;;;29.70;37.50;;;;;;9174144;19;20022;-71
2022/06/22 15:49:11;;;;;;;2.45;0.68;;;29.60;37.50;;;;;;9172270;19;20029;-68
2022/06/22 15:52:21;;;;;;;4.55;1.08;;;29.60;37.40;;;;;;9176546;19;20018;-68
2022/06/22 15:55:44;;;;;;;1.95;0.90;;;29.50;37.50;;;;;;9179856;19;20010;-69
2022/06/22 15:58:57;;;;;;;5.25;0.85;;;29.50;37.30;;;;;;9171924;19;20407;-69
2022/06/22 16:02:06;;;;;;;2.67;0.77;;;29.40;37.40;;;;;;9174969;19;20067;-69
2022/06/22 16:05:21;;;;;;;0.88;0.70;;;29.40;37.50;;;;;;9175361;19;20073;-69
2022/06/22 16:08:35;;;;;;;4.95;0.73;;;29.40;37.50;;;;;;9176576;19;20033;-70
2022/06/22 16:15:13;;;;;;;1.95;0.70;;;29.30;37.90;;;;;;9172918;19;19933;-71
2022/06/22 16:18:27;;;;;;;1.40;0.70;;;29.20;37.80;;;;;;9173037;19;20026;-70
2022/06/22 16:21:37;;;;;;;4.32;0.70;;;29.10;37.50;;;;;;9173474;19;20018;-70
2022/06/22 16:24:48;;;;;;;8.63;0.80;;;29.00;37.60;;;;;;9177442;19;20018;-69
2022/06/22 16:28:02;;;;;;;9.07;1.30;;;29.00;37.60;;;;;;9179204;19;20021;-70
2022/06/22 16:31:13;;;;;;;0.75;0.40;;;28.90;37.50;;;;;;9181214;19;20050;-69
2022/06/22 16:34:26;;;;;;;1.67;0.63;;;28.90;37.50;;;;;;9184755;19;20403;-70
2022/06/22 16:37:46;;;;;;;3.73;1.23;;;28.80;37.50;;;;;;9180967;19;20021;-69
2022/06/22 16:41:00;;;;;;;5.03;0.80;;;28.80;37.50;;;;;;9182134;19;20034;-70
2022/06/22 16:44:34;;;;;;;1.73;0.90;;;28.70;37.40;;;;;;9181373;19;20019;-68
2022/06/22 16:47:47;;;;;;;6.38;0.98;;;28.60;37.50;;;;;;9181548;19;20022;-69
2022/06/22 16:51:01;;;;;;;;;;;28.50;37.40;;;;;;9184322;19;20478;-69
2022/06/22 16:54:08;;;;;;;;;;;28.50;37.80;;;;;;9182292;19;19919;-70
2022/06/22 16:57:17;;;;;;;1.40;0.70;;;28.50;38.20;;;;;;9181770;19;20336;-70
2022/06/22 17:00:29;;;;;;;1.88;0.90;;;28.40;37.90;;;;;;9179712;19;20010;-69
2022/06/22 17:03:50;;;;;;;3.58;1.00;;;28.40;37.80;;;;;;9179061;19;20030;-69
2022/06/22 17:07:11;;;;;;;2.47;0.95;;;28.40;37.70;;;;;;9180956;19;20018;-70
2022/06/22 17:10:29;;;;;;;6.47;0.98;;;28.30;37.60;;;;;;9180145;19;20503;-69
2022/06/22 17:13:37;;;;;;;3.22;0.88;;;28.20;37.70;;;;;;9178015;19;20021;-69
2022/06/22 17:16:52;;;;;;;5.88;1.17;;;28.20;37.70;;;;;;9180792;19;20074;-70
2022/06/22 17:20:04;;;;;;;1.63;0.80;;;28.10;37.60;;;;;;9179590;19;20019;-70
2022/06/22 17:23:16;;;;;;;2.13;0.85;;;28.00;37.70;;;;;;9181634;19;20023;-69
2022/06/22 17:26:25;;;;;;;5.70;1.10;;;27.90;37.70;;;;;;9179153;19;20029;-68
2022/06/22 17:29:38;;;;;;;4.10;0.98;;;27.90;37.70;;;;;;9180005;19;20021;-69